Time;durP1;ratioP1;P1;durP2;ratioP2;P2;SDS_P1;SDS_P2;PMS_P1;PMS_P2;Temp;Humidity;BMP_temperature;BMP_pressure;BME280_temperature;BME280_humidity;BME280_pressure;Samples;Min_cycle;Max_cycle;Signal;HPM_P1;HPM_P2
2022/04/15 00:02:07;;;;;;;15.78;8.88;;;;;;;5.08;57.47;100916.13;1774243;80;21579;-52
2022/04/15 00:04:34;;;;;;;15.32;9.10;;;;;;;5.08;57.52;100919.60;1773844;79;21548;-52
2022/04/15 00:07:01;;;;;;;13.55;7.67;;;;;;;5.06;57.67;100912.75;1767658;79;21514;-52
2022/04/15 00:09:30;;;;;;;17.27;9.35;;;;;;;5.05;57.82;100924.13;1774708;79;21177;-52
2022/04/15 00:12:01;;;;;;;15.23;8.13;;;;;;;5.03;57.85;100918.98;1767295;79;21055;-53
2022/04/15 00:14:26;;;;;;;13.08;7.90;;;;;;;5.03;57.93;100915.91;1772002;80;21654;-52
2022/04/15 00:16:55;;;;;;;20.60;9.75;;;;;;;5.01;57.90;100920.36;1774611;79;21065;-52
2022/04/15 00:19:23;;;;;;;15.60;9.20;;;;;;;4.98;57.82;100915.75;1770424;80;21062;-52
2022/04/15 00:21:51;;;;;;;14.95;8.78;;;;;;;4.94;57.81;100918.97;1773504;80;21530;-52
2022/04/15 00:24:18;;;;;;;13.70;8.60;;;;;;;4.90;57.79;100910.89;1769365;80;22317;-52
2022/04/15 00:26:45;;;;;;;16.82;9.65;;;;;;;4.86;57.88;100921.09;1772642;79;21181;-53
2022/04/15 00:29:13;;;;;;;17.42;8.85;;;;;;;4.82;57.91;100914.32;1768929;80;21858;-52
2022/04/15 00:31:40;;;;;;;15.30;8.90;;;;;;;4.79;58.07;100914.46;1769888;80;22101;-52
2022/04/15 00:34:06;;;;;;;15.70;9.28;;;;;;;4.75;58.12;100914.23;1767284;80;21118;-52
2022/04/15 00:36:33;;;;;;;15.88;8.75;;;;;;;4.72;58.27;100908.69;1771306;80;21036;-52
2022/04/15 00:39:00;;;;;;;14.50;7.67;;;;;;;4.72;58.37;100904.78;1775347;79;21578;-53
2022/04/15 00:41:26;;;;;;;14.83;8.43;;;;;;;4.80;58.30;100910.95;1773546;80;21067;-52
2022/04/15 00:43:54;;;;;;;16.02;8.08;;;;;;;4.84;58.31;100912.05;1776546;79;21065;-52
2022/04/15 00:46:21;;;;;;;14.73;7.95;;;;;;;4.92;58.49;100909.05;1768268;80;21212;-52
2022/04/15 00:48:49;;;;;;;17.02;8.98;;;;;;;5.01;58.42;100906.02;1774411;79;21018;-53
2022/04/15 00:51:17;;;;;;;13.20;8.45;;;;;;;5.06;58.40;100901.88;1752562;80;21054;-53
2022/04/15 00:53:45;;;;;;;14.53;8.40;;;;;;;5.11;58.39;100895.98;1763919;80;21023;-52
2022/04/15 00:56:13;;;;;;;13.62;9.13;;;;;;;5.15;58.33;100900.59;1759963;80;21000;-52
2022/04/15 00:58:40;;;;;;;13.78;8.88;;;;;;;5.17;58.27;100901.34;1759973;80;22124;-53
2022/04/15 01:01:07;;;;;;;16.62;8.73;;;;;;;5.17;58.15;100897.44;1756649;80;21074;-52
2022/04/15 01:03:34;;;;;;;16.67;9.48;;;;;;;5.14;58.10;100898.41;1751101;80;21079;-53
2022/04/15 01:06:01;;;;;;;14.75;9.00;;;;;;;5.08;58.11;100896.12;1752469;80;21002;-52
2022/04/15 01:08:29;;;;;;;15.80;9.90;;;;;;;5.01;58.24;100886.92;1763299;80;21442;-53
2022/04/15 01:11:00;;;;;;;19.65;9.65;;;;;;;4.95;58.34;100888.05;1761259;80;21146;-52
2022/04/15 01:13:27;;;;;;;15.95;9.18;;;;;;;4.91;58.40;100891.73;1754022;80;21003;-52
2022/04/15 01:15:55;;;;;;;14.20;8.55;;;;;;;4.88;58.39;100889.73;1762064;80;21041;-52
2022/04/15 01:18:23;;;;;;;17.48;9.03;;;;;;;4.82;58.46;100889.55;1750390;80;21054;-52
2022/04/15 01:20:52;;;;;;;16.45;9.00;;;;;;;4.78;58.58;100890.16;1752121;80;21106;-52
2022/04/15 01:23:20;;;;;;;16.57;8.78;;;;;;;4.74;58.67;100891.23;1761812;80;21259;-52
2022/04/15 01:25:48;;;;;;;15.60;8.80;;;;;;;4.68;58.77;100894.59;1760076;80;21042;-52
2022/04/15 01:28:16;;;;;;;18.17;9.80;;;;;;;4.61;58.96;100889.66;1751873;80;21086;-52
2022/04/15 01:30:45;;;;;;;16.40;9.40;;;;;;;4.57;59.15;100897.25;1750403;80;21054;-53
2022/04/15 01:33:12;;;;;;;19.42;10.28;;;;;;;4.53;59.41;100900.90;1761966;80;21022;-52
2022/04/15 01:35:39;;;;;;;18.10;10.05;;;;;;;4.50;59.68;100897.59;1759672;80;21145;-53
2022/04/15 01:38:07;;;;;;;15.50;9.53;;;;;;;4.47;59.88;100902.48;1750495;80;21110;-52
2022/04/15 01:40:34;;;;;;;13.28;8.85;;;;;;;4.46;60.14;100897.73;1756414;80;21054;-53
2022/04/15 01:43:04;;;;;;;19.48;9.90;;;;;;;4.52;60.23;100894.45;1755331;80;21023;-52
2022/04/15 01:45:30;;;;;;;16.42;9.23;;;;;;;4.57;60.28;100888.56;1753723;80;21069;-53
2022/04/15 01:47:57;;;;;;;17.80;9.73;;;;;;;4.62;60.48;100890.06;1758730;80;22003;-52
2022/04/15 01:50:24;;;;;;;16.82;9.68;;;;;;;4.68;60.51;100891.98;1754110;80;21552;-52
2022/04/15 01:52:51;;;;;;;18.80;10.38;;;;;;;4.73;60.49;100882.19;1762011;80;20991;-52
2022/04/15 01:55:17;;;;;;;18.10;10.10;;;;;;;4.75;60.36;100888.16;1757387;80;21070;-52
2022/04/15 01:57:45;;;;;;;17.20;10.05;;;;;;;4.75;60.31;100888.16;1755447;80;21089;-52
2022/04/15 02:00:13;;;;;;;16.42;10.32;;;;;;;4.74;60.34;100887.77;1759810;80;22198;-52
2022/04/15 02:02:41;;;;;;;16.27;10.13;;;;;;;4.75;60.23;100890.77;1763127;80;21576;-53
2022/04/15 02:05:08;;;;;;;19.32;10.82;;;;;;;4.74;60.27;100888.63;1753269;80;21067;-53
2022/04/15 02:07:35;;;;;;;17.90;11.05;;;;;;;4.72;60.38;100891.74;1762317;80;21043;-52
2022/04/15 02:10:04;;;;;;;21.90;11.18;;;;;;;4.71;60.42;100889.20;1759310;80;21030;-52
2022/04/15 02:12:32;;;;;;;21.30;10.93;;;;;;;4.68;60.43;100889.38;1760597;80;21047;-52
2022/04/15 02:14:59;;;;;;;18.15;10.03;;;;;;;4.62;60.41;100880.94;1760855;80;21472;-52
2022/04/15 02:17:26;;;;;;;16.00;10.28;;;;;;;4.58;60.27;100885.05;1753818;80;21062;-52
2022/04/15 02:19:52;;;;;;;18.40;10.90;;;;;;;4.50;60.47;100882.80;1758778;80;21026;-52
2022/04/15 02:22:19;;;;;;;19.75;11.33;;;;;;;4.46;60.47;100883.40;1756134;80;21057;-53
2022/04/15 02:24:46;;;;;;;19.35;11.57;;;;;;;4.41;60.43;100881.47;1757198;80;21747;-53
2022/04/15 02:27:12;;;;;;;18.65;11.12;;;;;;;4.37;60.40;100880.37;1749752;80;21058;-52
2022/04/15 02:29:39;;;;;;;18.32;10.55;;;;;;;4.34;60.36;100884.41;1760684;80;21101;-53
2022/04/15 02:32:07;;;;;;;19.05;11.97;;;;;;;4.26;60.30;100880.87;1761425;80;21037;-52
2022/04/15 02:34:33;;;;;;;24.80;12.20;;;;;;;4.20;60.24;100882.01;1751043;80;21109;-53
2022/04/15 02:37:00;;;;;;;25.95;12.23;;;;;;;4.14;60.32;100884.05;1756846;80;21100;-52
2022/04/15 02:39:26;;;;;;;17.20;10.68;;;;;;;4.07;60.47;100879.10;1757876;80;21030;-52
2022/04/15 02:41:55;;;;;;;23.98;11.55;;;;;;;4.07;60.60;100880.41;1755747;80;21114;-53
2022/04/15 02:44:23;;;;;;;20.95;10.85;;;;;;;4.14;60.50;100878.84;1744608;80;21121;-52
2022/04/15 02:46:50;;;;;;;18.23;11.12;;;;;;;4.20;60.46;100873.33;1750453;80;21038;-52
2022/04/15 02:49:18;;;;;;;20.37;11.40;;;;;;;4.25;60.29;100875.27;1759530;80;21039;-52
2022/04/15 02:51:45;;;;;;;21.60;12.23;;;;;;;4.30;60.28;100868.55;1770659;79;21040;-53
2022/04/15 02:54:13;;;;;;;21.05;12.78;;;;;;;4.29;60.26;100869.02;1769706;80;21038;-53
2022/04/15 02:56:39;;;;;;;22.50;12.03;;;;;;;4.30;60.21;100875.06;1765317;80;21571;-52
2022/04/15 02:59:06;;;;;;;18.55;11.95;;;;;;;4.27;60.27;100868.25;1768196;80;21062;-53
2022/04/15 03:01:34;;;;;;;23.67;11.95;;;;;;;4.30;60.45;100867.24;1768630;79;21000;-52
2022/04/15 03:04:00;;;;;;;23.85;12.23;;;;;;;4.26;60.64;100867.37;1766350;79;21063;-53
2022/04/15 03:06:28;;;;;;;19.35;11.50;;;;;;;4.25;60.89;100866.14;1766332;80;21004;-52
2022/04/15 03:08:55;;;;;;;20.12;11.83;;;;;;;4.24;60.96;100870.52;1762597;80;21078;-52
2022/04/15 03:11:22;;;;;;;16.35;10.60;;;;;;;4.23;60.95;100862.30;1760173;80;21063;-52
2022/04/15 03:13:48;;;;;;;19.70;11.22;;;;;;;4.18;61.00;100862.97;1769008;80;22100;-53
2022/04/15 03:16:15;;;;;;;20.77;11.73;;;;;;;4.12;61.08;100856.77;1763741;80;21038;-52
2022/04/15 03:18:43;;;;;;;18.00;11.43;;;;;;;4.07;61.18;100858.73;1755357;80;21004;-53
2022/04/15 03:21:10;;;;;;;19.62;10.93;;;;;;;4.01;61.37;100857.23;1762375;80;21520;-52
2022/04/15 03:23:39;;;;;;;18.55;11.68;;;;;;;3.99;61.51;100858.23;1766843;80;21059;-52
2022/04/15 03:26:05;;;;;;;19.67;11.75;;;;;;;3.96;61.49;100857.06;1762702;80;21249;-52
2022/04/15 03:28:32;;;;;;;21.33;11.33;;;;;;;3.91;61.52;100862.47;1764391;79;21027;-52
2022/04/15 03:31:00;;;;;;;17.60;10.95;;;;;;;3.96;61.55;100862.27;1759632;80;21082;-52
2022/04/15 03:33:28;;;;;;;22.85;10.95;;;;;;;4.02;61.64;100861.54;1770449;79;21075;-52
2022/04/15 03:35:55;;;;;;;21.55;11.60;;;;;;;4.10;61.61;100863.78;1766583;79;21525;-52
2022/04/15 03:38:21;;;;;;;24.02;13.50;;;;;;;4.14;61.65;100857.53;1766821;80;21170;-53
2022/04/15 03:40:48;;;;;;;28.38;13.95;;;;;;;4.19;61.89;100860.77;1756901;79;21051;-52
2022/04/15 03:43:14;;;;;;;21.52;13.45;;;;;;;4.24;62.03;100861.41;1753970;80;21113;-52
2022/04/15 03:45:41;;;;;;;24.37;13.75;;;;;;;4.31;62.08;100872.86;1764536;79;21022;-53
2022/04/15 03:48:07;;;;;;;20.97;14.58;;;;;;;4.34;62.12;100872.25;1721292;82;21039;-52
2022/04/15 03:50:34;;;;;;;19.77;11.93;;;;;;;4.33;62.16;100867.11;1717101;82;21140;-52
2022/04/15 03:53:01;;;;;;;23.38;13.78;;;;;;;4.32;62.18;100870.19;1712412;82;21150;-52
2022/04/15 03:55:28;;;;;;;19.87;12.25;;;;;;;4.32;62.15;100867.58;1719131;82;21668;-52
2022/04/15 03:57:54;;;;;;;23.65;13.43;;;;;;;4.32;62.26;100870.19;1724482;83;21110;-53
2022/04/15 04:00:23;;;;;;;24.25;13.48;;;;;;;4.33;62.25;100860.59;1721385;82;21106;-52
2022/04/15 04:02:52;;;;;;;19.12;12.63;;;;;;;4.34;62.30;100864.87;1726991;83;21190;-53
2022/04/15 04:05:20;;;;;;;18.40;12.78;;;;;;;4.36;62.18;100860.45;1704627;81;21083;-52
2022/04/15 04:07:48;;;;;;;23.42;12.78;;;;;;;4.36;62.13;100859.16;1760660;79;21082;-52
2022/04/15 04:10:15;;;;;;;20.48;11.45;;;;;;;4.39;62.25;100859.02;1751252;79;21137;-53
2022/04/15 04:12:44;;;;;;;20.82;11.93;;;;;;;4.47;62.16;100862.08;1765315;80;21655;-52
2022/04/15 04:15:12;;;;;;;18.02;10.38;;;;;;;4.58;61.86;100865.03;1758475;79;21151;-52
2022/04/15 04:17:39;;;;;;;19.67;11.50;;;;;;;4.70;61.56;100861.47;1772301;79;21031;-53
2022/04/15 04:20:07;;;;;;;17.75;11.12;;;;;;;4.79;61.30;100858.41;1772576;79;21063;-53
2022/04/15 04:22:35;;;;;;;21.37;11.83;;;;;;;4.87;60.81;100864.09;1767190;80;20976;-53
2022/04/15 04:25:03;;;;;;;16.67;11.73;;;;;;;4.91;60.31;100854.36;1762846;79;21089;-53
2022/04/15 04:27:31;;;;;;;19.77;12.82;;;;;;;4.96;60.10;100851.93;1762192;80;21079;-53
2022/04/15 04:29:58;;;;;;;21.40;12.15;;;;;;;5.03;59.92;100857.22;1760198;79;21035;-52
2022/04/15 04:32:24;;;;;;;22.07;11.43;;;;;;;5.11;59.94;100848.16;1762283;79;21087;-53
2022/04/15 04:34:52;;;;;;;20.02;12.13;;;;;;;5.16;59.93;100844.86;1765066;80;21051;-52
2022/04/15 04:37:19;;;;;;;25.82;11.45;;;;;;;5.19;60.03;100845.58;1764128;79;21095;-53
2022/04/15 04:39:46;;;;;;;19.23;11.63;;;;;;;5.24;60.05;100847.09;1766950;79;21140;-52
2022/04/15 04:42:12;;;;;;;19.50;11.80;;;;;;;5.28;60.07;100845.57;1759779;79;21018;-53
2022/04/15 04:44:39;;;;;;;18.55;11.18;;;;;;;5.31;60.00;100845.42;1763318;80;21023;-53
2022/04/15 04:47:09;;;;;;;18.37;11.83;;;;;;;5.36;60.00;100843.42;1764411;80;22087;-53
2022/04/15 04:49:37;;;;;;;18.37;10.88;;;;;;;5.43;59.79;100845.70;1768122;80;21086;-52
2022/04/15 04:52:05;;;;;;;19.27;9.95;;;;;;;5.50;59.58;100839.27;1767056;79;21552;-52
2022/04/15 04:54:31;;;;;;;17.17;10.15;;;;;;;5.58;59.38;100846.20;1766654;80;21043;-52
2022/04/15 04:56:58;;;;;;;14.68;9.35;;;;;;;5.66;59.15;100836.21;1761642;80;21087;-52
2022/04/15 04:59:25;;;;;;;18.32;9.63;;;;;;;5.74;59.01;100835.35;1772664;79;21113;-52
2022/04/15 05:01:52;;;;;;;21.87;10.70;;;;;;;5.82;58.88;100836.27;1763292;79;21106;-53
2022/04/15 05:04:19;;;;;;;17.50;10.43;;;;;;;5.89;58.68;100833.70;1757733;80;21260;-53
2022/04/15 05:06:47;;;;;;;18.77;9.93;;;;;;;6.00;58.44;100836.23;1763561;80;21035;-52
2022/04/15 05:09:15;;;;;;;13.85;8.40;;;;;;;6.08;58.38;100826.22;1766202;80;21087;-52
2022/04/15 05:11:43;;;;;;;14.95;8.10;;;;;;;6.22;58.31;100821.53;1762493;79;21039;-53
2022/04/15 05:14:10;;;;;;;15.08;8.60;;;;;;;6.39;58.07;100820.16;1769758;80;21584;-53
2022/04/15 05:16:38;;;;;;;14.90;8.98;;;;;;;6.59;57.88;100828.20;1760967;79;21082;-53
2022/04/15 05:19:04;;;;;;;16.80;9.73;;;;;;;6.77;57.44;100831.52;1757522;80;21580;-52
2022/04/15 05:21:33;;;;;;;15.40;9.03;;;;;;;6.95;56.85;100822.27;1759526;79;21572;-52
2022/04/15 05:24:01;;;;;;;15.88;8.48;;;;;;;7.11;56.30;100819.14;1770854;80;21609;-54
2022/04/15 05:26:29;;;;;;;14.98;8.70;;;;;;;7.28;55.94;100828.61;1770425;79;21035;-52
2022/04/15 05:28:55;;;;;;;15.80;7.72;;;;;;;7.40;55.54;100825.73;1769285;80;21162;-51
2022/04/15 05:31:23;;;;;;;16.77;7.83;;;;;;;7.52;55.16;100826.30;1763955;80;21059;-53
2022/04/15 05:33:49;;;;;;;17.42;7.35;;;;;;;7.65;54.53;100833.40;1767090;79;21079;-51
2022/04/15 05:36:17;;;;;;;13.58;7.28;;;;;;;7.72;54.02;100826.40;1759162;80;21094;-52
2022/04/15 05:38:44;;;;;;;12.73;7.42;;;;;;;7.83;53.35;100828.83;1766198;79;21055;-52
2022/04/15 05:41:12;;;;;;;13.95;7.53;;;;;;;7.91;52.95;100827.89;1760962;80;21541;-52
2022/04/15 05:43:38;;;;;;;11.55;7.37;;;;;;;8.00;52.59;100826.86;1758734;79;21541;-52
2022/04/15 05:46:05;;;;;;;11.33;6.90;;;;;;;8.09;51.94;100825.44;1765536;80;21046;-51
2022/04/15 05:48:34;;;;;;;12.58;7.05;;;;;;;8.19;51.96;100820.46;1759926;80;22223;-52
2022/04/15 05:51:00;;;;;;;14.65;8.18;;;;;;;8.28;52.11;100824.28;1760400;79;21576;-51
2022/04/15 05:53:27;;;;;;;14.93;6.80;;;;;;;8.36;52.23;100822.02;1713122;82;21532;-51
2022/04/15 05:55:54;;;;;;;14.45;6.42;;;;;;;8.46;51.71;100819.68;1731948;82;21775;-52
2022/04/15 05:58:20;;;;;;;13.20;7.15;;;;;;;8.57;51.12;100813.25;1768717;79;20992;-53
2022/04/15 06:00:47;;;;;;;16.55;7.08;;;;;;;8.66;50.78;100807.91;1766286;79;21138;-52
2022/04/15 06:03:14;;;;;;;13.08;6.80;;;;;;;8.77;50.69;100808.02;1760844;79;21050;-51
2022/04/15 06:05:42;;;;;;;16.30;7.47;;;;;;;8.88;50.37;100807.33;1765465;80;21109;-52
2022/04/15 06:08:09;;;;;;;13.80;6.67;;;;;;;9.00;50.32;100807.81;1760026;79;21055;-52
2022/04/15 06:10:38;;;;;;;12.80;6.92;;;;;;;9.11;50.55;100803.14;1762084;80;21093;-53
2022/04/15 06:13:09;;;;;;;11.95;6.40;;;;;;;9.24;50.26;100803.17;1754998;80;21500;-52
2022/04/15 06:15:41;;;;;;;11.38;4.97;;;;;;;9.36;50.34;100805.44;1760797;80;21010;-53
2022/04/15 06:18:05;;;;;;;13.13;6.12;;;;;;;9.49;49.25;100799.23;1755492;80;21152;-53
2022/04/15 06:20:34;;;;;;;11.63;5.47;;;;;;;9.63;48.34;100796.13;1772780;80;21030;-53
2022/04/15 06:23:02;;;;;;;11.53;6.22;;;;;;;9.77;48.12;100794.70;1759950;80;21473;-52
2022/04/15 06:25:28;;;;;;;10.10;5.95;;;;;;;9.93;47.61;100793.62;1753268;79;21735;-51
2022/04/15 06:27:56;;;;;;;11.35;6.33;;;;;;;10.03;48.09;100790.21;1687108;82;21537;-51
2022/04/15 06:30:22;;;;;;;12.45;5.25;;;;;;;10.13;48.50;100782.51;1716453;82;21524;-51
2022/04/15 06:32:49;;;;;;;10.48;5.58;;;;;;;10.25;48.23;100773.38;1715578;81;21063;-51
2022/04/15 06:35:16;;;;;;;10.35;4.00;;;;;;;10.37;47.73;100780.41;1706292;82;21035;-51
2022/04/15 06:37:43;;;;;;;6.53;2.55;;;;;;;10.49;45.69;100776.89;1721133;81;21073;-52
2022/04/15 06:40:11;;;;;;;8.93;2.95;;;;;;;10.67;44.33;100777.80;1714165;82;21089;-52
2022/04/15 06:42:39;;;;;;;5.87;2.35;;;;;;;10.85;42.56;100776.91;1717442;81;21132;-53
2022/04/15 06:45:09;;;;;;;6.15;3.15;;;;;;;11.06;41.29;100775.75;1715361;83;21043;-52
2022/04/15 06:47:36;;;;;;;6.60;2.40;;;;;;;11.26;41.77;100772.91;1762840;80;21078;-51
2022/04/15 06:50:03;;;;;;;6.22;3.02;;;;;;;11.48;41.27;100774.73;1762089;80;21556;-52
2022/04/15 06:52:30;;;;;;;6.47;2.33;;;;;;;11.67;39.70;100774.16;1712377;81;21058;-51
2022/04/15 06:54:57;;;;;;;5.58;2.33;;;;;;;11.89;39.13;100769.34;1687995;82;21575;-52
2022/04/15 06:57:23;;;;;;;6.00;2.65;;;;;;;12.07;38.83;100767.90;1726282;82;21030;-52
2022/04/15 06:59:49;;;;;;;6.62;2.47;;;;;;;12.21;38.96;100764.14;1768031;80;21014;-53
2022/04/15 07:02:16;;;;;;;5.65;2.02;;;;;;;12.34;37.96;100758.72;1765695;80;21071;-51
2022/04/15 07:04:43;;;;;;;4.85;1.82;;;;;;;12.48;38.08;100749.66;1767748;79;21061;-52
2022/04/15 07:07:10;;;;;;;4.97;1.80;;;;;;;12.61;37.39;100757.42;1763180;80;21090;-52
2022/04/15 07:09:37;;;;;;;4.25;1.37;;;;;;;12.74;36.47;100754.12;1759795;80;21093;-51
2022/04/15 07:12:06;;;;;;;3.75;1.70;;;;;;;12.86;35.80;100757.53;1761324;80;21031;-52
2022/04/15 07:14:33;;;;;;;6.72;2.30;;;;;;;12.99;35.57;100750.72;1765981;79;21078;-52
2022/04/15 07:17:01;;;;;;;5.00;1.70;;;;;;;13.12;35.84;100754.48;1757028;79;21156;-53
2022/04/15 07:19:29;;;;;;;5.17;1.98;;;;;;;13.25;34.96;100752.48;1764636;80;21988;-52
2022/04/15 07:21:55;;;;;;;4.58;1.70;;;;;;;13.36;34.99;100755.55;1773558;79;21045;-52
2022/04/15 07:24:22;;;;;;;4.03;1.60;;;;;;;13.50;34.49;100747.73;1743373;80;21035;-52
2022/04/15 07:26:49;;;;;;;4.25;1.57;;;;;;;13.61;34.40;100748.14;1762144;80;21040;-52
2022/04/15 07:29:16;;;;;;;4.22;1.42;;;;;;;13.69;34.36;100744.34;1759985;80;21007;-53
2022/04/15 07:31:43;;;;;;;5.00;2.05;;;;;;;13.77;34.04;100745.84;1765284;80;21603;-53
2022/04/15 07:34:09;;;;;;;6.53;2.05;;;;;;;13.85;34.35;100743.83;1757782;79;21119;-51
2022/04/15 07:39:06;;;;;;;6.20;2.37;;;;;;;14.02;33.98;100743.19;1764987;80;21007;-51
2022/04/15 07:41:36;;;;;;;5.42;1.55;;;;;;;14.11;33.75;100744.17;1771748;80;21062;-52
2022/04/15 07:44:08;;;;;;;4.65;2.00;;;;;;;14.17;33.32;100742.31;1764865;80;21886;-52
2022/04/15 07:46:36;;;;;;;4.60;1.70;;;;;;;14.26;32.79;100744.61;1762973;80;21098;-52
2022/04/15 07:49:04;;;;;;;4.47;1.62;;;;;;;14.37;32.76;100737.01;1753672;79;21035;-52
2022/04/15 07:51:32;;;;;;;4.92;1.72;;;;;;;14.47;33.00;100733.88;1759639;80;21159;-52
2022/04/15 07:53:58;;;;;;;3.47;1.37;;;;;;;14.58;32.87;100728.94;1752850;79;21041;-52
2022/04/15 07:56:25;;;;;;;4.20;1.62;;;;;;;14.68;32.49;100725.33;1761605;79;21928;-52
2022/04/15 07:58:53;;;;;;;5.58;1.52;;;;;;;14.80;32.74;100730.48;1765727;80;21051;-52
2022/04/15 08:01:20;;;;;;;5.28;2.00;;;;;;;14.89;32.33;100729.61;1759481;79;21039;-52
2022/04/15 08:03:47;;;;;;;4.80;1.85;;;;;;;14.97;32.80;100723.61;1759282;80;21407;-52
2022/04/15 08:06:15;;;;;;;4.03;1.27;;;;;;;15.04;32.90;100722.05;1756184;79;21094;-52
2022/04/15 08:08:41;;;;;;;4.90;1.70;;;;;;;15.10;32.18;100717.51;1762355;80;21144;-52
2022/04/15 08:11:09;;;;;;;4.37;1.50;;;;;;;15.18;32.21;100712.80;1765103;80;21122;-52
2022/04/15 08:13:37;;;;;;;4.70;1.65;;;;;;;15.27;31.91;100713.77;1762156;79;21038;-52
2022/04/15 08:16:04;;;;;;;8.33;2.02;;;;;;;15.38;30.84;100713.09;1772564;80;20991;-52
2022/04/15 08:18:32;;;;;;;4.50;1.20;;;;;;;15.49;31.17;100712.05;1769875;80;21090;-52
2022/04/15 08:21:01;;;;;;;3.92;1.52;;;;;;;15.58;30.70;100701.05;1752768;80;21002;-52
2022/04/15 08:23:27;;;;;;;4.42;1.40;;;;;;;15.65;30.67;100704.80;1776328;79;21051;-52
2022/04/15 08:25:55;;;;;;;3.47;1.42;;;;;;;15.72;30.48;100695.25;1751485;80;21055;-52
2022/04/15 08:28:22;;;;;;;4.87;1.60;;;;;;;15.81;29.92;100702.02;1766774;80;21027;-52
2022/04/15 08:30:50;;;;;;;3.98;1.65;;;;;;;15.89;29.92;100702.11;1769771;80;21028;-52
2022/04/15 08:33:17;;;;;;;6.65;1.50;;;;;;;15.96;30.37;100689.90;1758600;80;21151;-52
2022/04/15 08:35:46;;;;;;;5.12;1.75;;;;;;;16.03;29.54;100700.24;1761937;80;21090;-52
2022/04/15 08:38:14;;;;;;;3.60;1.50;;;;;;;16.12;30.00;100691.86;1744443;80;21545;-52
2022/04/15 08:40:49;;;;;;;4.67;1.47;;;;;;;16.17;30.27;100686.93;1753199;79;21041;-53
2022/04/15 08:43:16;;;;;;;4.03;1.57;;;;;;;16.21;29.57;100685.66;1763986;80;21009;-51
2022/04/15 08:45:45;;;;;;;4.85;1.65;;;;;;;16.25;29.75;100683.02;1716018;81;21160;-51
2022/04/15 08:48:12;;;;;;;3.35;1.37;;;;;;;16.31;29.03;100684.25;1761702;79;21055;-52
2022/04/15 08:50:39;;;;;;;4.80;1.40;;;;;;;16.38;29.20;100680.49;1757613;80;21026;-51
2022/04/15 08:53:09;;;;;;;8.70;1.92;;;;;;;16.44;28.69;100679.39;1759841;79;21082;-52
2022/04/15 08:55:36;;;;;;;4.12;1.40;;;;;;;16.50;29.35;100672.61;1732797;82;21083;-52
2022/04/15 08:58:02;;;;;;;5.33;1.77;;;;;;;16.58;29.81;100667.87;1760498;79;21149;-52
2022/04/15 09:00:30;;;;;;;3.55;1.37;;;;;;;16.67;29.49;100665.59;1796500;79;21015;-51
2022/04/15 09:02:57;;;;;;;4.45;1.87;;;;;;;16.78;28.88;100669.33;1762556;80;21012;-52
2022/04/15 09:05:26;;;;;;;4.08;1.60;;;;;;;16.87;28.29;100667.58;1765645;80;21090;-53
2022/04/15 09:08:05;;;;;;;5.25;1.70;;;;;;;16.91;28.29;100659.62;1712748;82;21079;-53
2022/04/15 09:10:34;;;;;;;4.70;1.70;;;;;;;16.97;28.51;100657.67;1759994;80;21099;-52
2022/04/15 09:13:05;;;;;;;3.77;1.40;;;;;;;17.09;28.48;100655.56;1749938;80;21062;-50
2022/04/15 09:15:32;;;;;;;3.45;1.30;;;;;;;17.17;28.01;100655.61;1771764;79;22181;-51
2022/04/15 09:18:00;;;;;;;4.83;1.85;;;;;;;17.20;27.76;100653.97;1741761;82;21094;-51
2022/04/15 09:20:34;;;;;;;5.67;1.67;;;;;;;17.24;27.64;100642.52;1762810;80;21083;-53
2022/04/15 09:23:10;;;;;;;4.37;1.87;;;;;;;17.26;28.11;100639.19;1758939;80;21174;-52
2022/04/15 09:25:41;;;;;;;7.10;1.80;;;;;;;17.32;29.92;100632.41;1765493;80;21039;-52
2022/04/15 09:28:08;;;;;;;5.12;1.72;;;;;;;17.44;29.53;100631.11;1758782;80;21091;-52
2022/04/15 09:30:41;;;;;;;4.12;1.62;;;;;;;17.54;28.79;100625.16;1758142;79;21592;-53
2022/04/15 09:33:10;;;;;;;4.65;1.65;;;;;;;17.62;28.40;100621.19;1774872;79;21091;-51
2022/04/15 09:35:36;;;;;;;4.70;1.92;;;;;;;17.71;29.22;100622.53;1761482;79;21652;-52
2022/04/15 09:38:05;;;;;;;7.65;2.00;;;;;;;17.79;28.76;100610.06;1772205;80;21011;-52
2022/04/15 09:40:38;;;;;;;5.95;2.00;;;;;;;17.88;28.44;100618.92;1743800;80;21065;-52
2022/04/15 09:43:06;;;;;;;5.58;1.70;;;;;;;17.96;27.73;100614.94;1756263;80;21165;-52
2022/04/15 09:45:35;;;;;;;5.05;1.65;;;;;;;17.99;27.50;100608.47;1757084;80;21011;-52
2022/04/15 09:48:08;;;;;;;5.60;1.50;;;;;;;18.05;27.78;100605.63;1764793;79;21225;-52
2022/04/15 09:50:43;;;;;;;5.83;1.87;;;;;;;18.08;27.71;100611.45;1762541;79;21567;-51
2022/04/15 09:53:17;;;;;;;4.45;1.70;;;;;;;18.12;27.45;100602.14;1769051;80;21033;-52
2022/04/15 09:55:50;;;;;;;5.12;1.70;;;;;;;18.13;27.68;100592.31;1774760;79;21039;-53
2022/04/15 09:58:22;;;;;;;4.15;1.70;;;;;;;18.18;27.26;100589.98;1771786;79;21029;-50
2022/04/15 10:00:51;;;;;;;4.22;1.35;;;;;;;18.21;27.90;100590.98;1767494;80;21823;-51
2022/04/15 10:03:25;;;;;;;5.28;1.87;;;;;;;18.28;27.50;100581.82;1773461;79;21064;-51
2022/04/15 10:05:54;;;;;;;6.20;1.50;;;;;;;18.31;27.57;100571.66;1773767;80;21092;-51
2022/04/15 10:08:25;;;;;;;5.50;1.80;;;;;;;18.38;27.44;100568.64;1772260;80;21173;-52
2022/04/15 10:10:55;;;;;;;4.62;1.57;;;;;;;18.44;27.43;100568.48;1770043;79;21550;-51
2022/04/15 10:13:28;;;;;;;5.78;1.95;;;;;;;18.51;27.80;100565.46;1780912;79;21089;-51
2022/04/15 10:15:55;;;;;;;6.17;1.98;;;;;;;18.57;28.03;100563.42;1757706;79;21014;-51
2022/04/15 10:18:25;;;;;;;6.55;1.85;;;;;;;18.65;27.29;100562.58;1775683;80;21076;-51
2022/04/15 10:20:53;;;;;;;4.83;1.87;;;;;;;18.77;26.62;100559.05;1770868;79;21097;-51
2022/04/15 10:23:21;;;;;;;4.47;1.82;;;;;;;18.80;26.11;100549.37;1770585;80;20995;-51
2022/04/15 10:25:50;;;;;;;4.78;2.17;;;;;;;18.84;27.10;100544.05;1771370;80;21252;-52
2022/04/15 10:28:17;;;;;;;5.37;1.92;;;;;;;18.91;26.47;100534.37;1767229;79;21111;-52
2022/04/15 10:30:55;;;;;;;4.45;1.52;;;;;;;18.98;26.86;100534.98;1775634;80;21750;-51
2022/04/15 10:33:31;;;;;;;4.05;1.70;;;;;;;19.04;27.39;100531.64;1741898;80;21059;-52
2022/04/15 10:36:17;;;;;;;5.17;1.87;;;;;;;19.11;26.27;100529.92;1770709;79;21060;-52
2022/04/15 10:39:07;;;;;;;4.90;2.02;;;;;;;19.15;26.03;100529.06;1769009;79;21122;-52
2022/04/15 10:41:48;;;;;;;7.58;2.00;;;;;;;19.19;26.16;100524.55;1761139;80;22193;-52
2022/04/15 10:44:39;;;;;;;4.55;1.70;;;;;;;19.23;26.29;100528.54;1768828;80;21617;-53
2022/04/15 10:47:22;;;;;;;5.75;1.60;;;;;;;19.28;27.43;100519.50;1754231;80;21056;-52
2022/04/15 10:50:07;;;;;;;4.45;1.52;;;;;;;19.38;25.86;100525.91;1770564;79;21630;-52
2022/04/15 10:52:35;;;;;;;4.60;1.70;;;;;;;19.40;25.64;100523.92;1764385;80;22219;-52
2022/04/15 10:55:07;;;;;;;5.03;1.80;;;;;;;19.39;25.83;100520.92;1766625;79;21040;-51
2022/04/15 10:57:46;;;;;;;4.55;1.75;;;;;;;19.42;26.24;100520.56;1772202;79;21044;-52
2022/04/15 11:03:31;;;;;;;4.70;1.60;;;;;;;19.58;26.60;100502.26;1763758;79;21091;-52
2022/04/15 11:08:15;;;;;;;4.17;1.80;;;;;;;19.76;25.47;100506.50;1797437;79;22617;-51
2022/04/15 11:11:07;;;;;;;9.50;1.50;;;;;;;19.74;25.51;100507.16;1751928;80;21154;-51
2022/04/15 11:13:47;;;;;;;7.00;1.98;;;;;;;19.77;25.73;100495.64;1750464;80;21022;-52
2022/04/15 11:16:16;;;;;;;4.42;1.70;;;;;;;19.83;26.70;100490.08;1753310;81;21042;-52
2022/04/15 11:18:52;;;;;;;3.87;1.30;;;;;;;19.90;25.46;100495.01;1747891;80;21048;-53
2022/04/15 11:21:27;;;;;;;3.70;1.70;;;;;;;19.97;25.36;100485.77;1754559;81;20984;-53
2022/04/15 11:24:07;;;;;;;4.17;1.70;;;;;;;20.07;25.55;100491.67;1747746;80;21802;-54
2022/04/15 11:26:42;;;;;;;5.12;1.70;;;;;;;20.16;25.26;100485.77;1711583;81;21157;-54
2022/04/15 11:29:11;;;;;;;4.15;1.30;;;;;;;20.25;25.87;100473.14;1713320;82;20970;-53
2022/04/15 11:31:46;;;;;;;5.60;1.70;;;;;;;20.35;25.67;100468.34;1713849;82;21033;-53
2022/04/15 11:34:17;;;;;;;4.20;1.40;;;;;;;20.47;24.95;100464.70;1712418;83;21705;-51
2022/04/15 11:36:46;;;;;;;5.12;1.25;;;;;;;20.54;25.07;100466.94;1718172;82;21110;-52